createdAt,value
2019-03-28T00:00:27.395Z,4.67
2019-03-28T00:02:53.928Z,4.33
2019-03-28T00:05:20.590Z,3.90
2019-03-28T00:07:47.077Z,4.25
2019-03-28T00:10:13.730Z,4.17
2019-03-28T00:12:40.369Z,4.60
2019-03-28T00:15:07.135Z,4.00
2019-03-28T00:17:34.001Z,4.42
2019-03-28T00:20:00.592Z,4.37
2019-03-28T00:22:29.016Z,3.83
2019-03-28T00:25:00.287Z,4.25
2019-03-28T00:27:26.758Z,4.75
2019-03-28T00:29:53.236Z,4.10
2019-03-28T00:32:19.922Z,4.80
2019-03-28T00:34:46.570Z,4.15
2019-03-28T00:37:13.164Z,4.53
2019-03-28T00:39:40.175Z,4.22
2019-03-28T00:42:06.774Z,4.40
2019-03-28T00:44:33.361Z,5.10
2019-03-28T00:46:59.903Z,5.45
2019-03-28T00:49:26.472Z,4.70
2019-03-28T00:51:53.034Z,5.40
2019-03-28T00:54:19.483Z,5.58
2019-03-28T00:56:47.702Z,4.85
2019-03-28T00:59:14.392Z,5.33
2019-03-28T01:01:40.963Z,5.08
2019-03-28T01:04:07.619Z,5.20
2019-03-28T01:06:34.329Z,4.95
2019-03-28T01:09:03.984Z,4.90
2019-03-28T01:11:32.547Z,4.87
2019-03-28T01:13:59.051Z,5.55
2019-03-28T01:16:25.750Z,5.20
2019-03-28T01:18:52.300Z,5.17
2019-03-28T01:21:19.000Z,4.80
2019-03-28T01:23:46.094Z,5.58
2019-03-28T01:26:12.570Z,4.50
2019-03-28T01:28:39.025Z,5.60
2019-03-28T01:31:05.701Z,5.80
2019-03-28T01:33:32.086Z,5.35
2019-03-28T01:35:58.538Z,5.25
2019-03-28T01:38:25.113Z,5.53
2019-03-28T01:40:51.553Z,5.42
2019-03-28T01:43:17.991Z,5.78
2019-03-28T01:45:44.445Z,5.12
2019-03-28T01:48:12.002Z,5.37
2019-03-28T01:50:38.528Z,5.33
2019-03-28T01:53:04.978Z,5.95
2019-03-28T01:55:31.443Z,5.20
2019-03-28T01:57:57.896Z,6.50
2019-03-28T02:00:24.480Z,5.53
2019-03-28T02:02:51.003Z,5.97
2019-03-28T02:05:18.652Z,4.95
2019-03-28T02:07:45.150Z,5.72
2019-03-28T02:10:11.891Z,5.47
2019-03-28T02:12:38.550Z,5.65
2019-03-28T02:15:07.210Z,6.47
2019-03-28T02:17:33.874Z,5.35
2019-03-28T02:20:00.438Z,5.10
2019-03-28T02:22:26.998Z,4.80
2019-03-28T02:24:53.526Z,5.53
2019-03-28T02:27:24.361Z,5.87
2019-03-28T02:29:48.299Z,4.90
2019-03-28T02:32:15.189Z,5.85
2019-03-28T02:34:42.112Z,5.20
2019-03-28T02:37:08.742Z,5.42
2019-03-28T02:39:35.393Z,4.72
2019-03-28T02:42:01.948Z,4.78
2019-03-28T02:44:28.560Z,4.87
2019-03-28T02:46:55.154Z,5.70
2019-03-28T02:49:21.701Z,5.42
2019-03-28T02:51:48.378Z,5.35
2019-03-28T02:54:14.967Z,5.50
2019-03-28T02:56:41.866Z,5.45
2019-03-28T02:59:08.862Z,5.08
2019-03-28T03:01:35.429Z,5.12
2019-03-28T03:04:01.888Z,4.75
2019-03-28T03:06:28.605Z,5.67
2019-03-28T03:08:55.357Z,5.20
2019-03-28T03:11:22.012Z,5.75
2019-03-28T03:13:48.699Z,5.37
2019-03-28T03:16:15.327Z,5.67
2019-03-28T03:18:41.878Z,5.85
2019-03-28T03:21:08.371Z,5.33
2019-03-28T03:23:35.947Z,5.22
2019-03-28T03:26:02.490Z,5.70
2019-03-28T03:28:29.264Z,5.80
2019-03-28T03:30:55.813Z,5.78
2019-03-28T03:33:22.519Z,6.35
2019-03-28T03:35:49.209Z,6.58
2019-03-28T03:38:17.041Z,6.10
2019-03-28T03:40:44.712Z,5.83
2019-03-28T03:43:11.286Z,5.90
2019-03-28T03:45:37.942Z,6.28
2019-03-28T03:48:04.586Z,6.00
2019-03-28T03:50:31.172Z,5.47
2019-03-28T03:52:57.647Z,5.95
2019-03-28T03:55:24.255Z,5.92
2019-03-28T03:57:50.984Z,6.45
2019-03-28T04:00:30.497Z,6.28
2019-03-28T04:02:59.805Z,6.25
2019-03-28T04:05:26.394Z,5.72
2019-03-28T04:07:53.065Z,5.90
2019-03-28T04:10:19.706Z,6.35
2019-03-28T04:12:46.452Z,5.65
2019-03-28T04:15:13.275Z,6.17
2019-03-28T04:17:41.007Z,6.83
2019-03-28T04:20:07.461Z,5.95
2019-03-28T04:22:34.031Z,6.00
2019-03-28T04:25:00.752Z,5.80
2019-03-28T04:27:27.423Z,6.10
2019-03-28T04:29:54.000Z,5.35
2019-03-28T04:32:20.689Z,5.45
2019-03-28T04:34:47.336Z,5.90
2019-03-28T04:37:13.968Z,6.58
2019-03-28T04:39:40.528Z,6.00
2019-03-28T04:42:07.393Z,6.65
2019-03-28T04:44:34.011Z,5.05
2019-03-28T04:47:00.794Z,4.67
2019-03-28T04:49:27.449Z,5.85
2019-03-28T04:51:54.005Z,5.92
2019-03-28T04:54:20.498Z,5.45
2019-03-28T04:56:47.080Z,4.47
2019-03-28T04:59:13.543Z,5.90
2019-03-28T05:01:40.117Z,5.97
2019-03-28T05:04:06.702Z,6.08
2019-03-28T05:06:34.236Z,6.35
2019-03-28T05:09:00.881Z,5.97
2019-03-28T05:11:27.442Z,6.72
2019-03-28T05:13:54.074Z,6.33
2019-03-28T05:16:20.650Z,6.37
2019-03-28T05:18:47.124Z,6.15
2019-03-28T05:21:13.584Z,6.87
2019-03-28T05:23:40.543Z,6.20
2019-03-28T05:26:07.304Z,7.17
2019-03-28T05:28:33.877Z,5.37
2019-03-28T05:31:00.449Z,5.83
2019-03-28T05:33:27.108Z,5.42
2019-03-28T05:35:53.670Z,7.00
2019-03-28T05:38:20.301Z,7.42
2019-03-28T05:40:46.842Z,6.80
2019-03-28T05:43:13.404Z,8.35
2019-03-28T05:45:41.050Z,6.08
2019-03-28T05:48:07.610Z,6.83
2019-03-28T05:50:34.658Z,6.55
2019-03-28T05:53:01.360Z,5.25
2019-03-28T05:55:27.921Z,6.87
2019-03-28T05:57:54.611Z,6.55
2019-03-28T06:00:21.548Z,6.92
2019-03-28T06:02:48.236Z,7.65
2019-03-28T06:05:14.918Z,7.78
2019-03-28T06:07:41.485Z,7.28
2019-03-28T06:10:08.015Z,7.47
2019-03-28T06:12:34.582Z,8.40
2019-03-28T06:15:01.266Z,8.08
2019-03-28T06:17:28.446Z,8.95
2019-03-28T06:19:55.198Z,9.50
2019-03-28T06:22:21.786Z,8.95
2019-03-28T06:24:48.402Z,8.85
2019-03-28T06:27:14.936Z,8.85
2019-03-28T06:29:41.528Z,9.35
2019-03-28T06:32:07.988Z,8.70
2019-03-28T06:34:34.777Z,8.88
2019-03-28T06:37:01.588Z,8.38
2019-03-28T06:39:28.331Z,9.08
2019-03-28T06:41:55.004Z,8.70
2019-03-28T06:44:21.716Z,8.00
2019-03-28T06:46:48.413Z,7.15
2019-03-28T06:49:14.948Z,7.92
2019-03-28T06:51:41.591Z,8.75
2019-03-28T06:54:09.307Z,8.78
2019-03-28T06:56:35.872Z,9.23
2019-03-28T06:59:02.405Z,8.70
2019-03-28T07:01:28.857Z,9.08
2019-03-28T07:03:56.543Z,9.05
2019-03-28T07:06:23.281Z,10.08
2019-03-28T07:08:49.755Z,10.58
2019-03-28T07:11:16.323Z,10.48
2019-03-28T07:13:43.049Z,10.80
2019-03-28T07:16:09.612Z,9.95
2019-03-28T07:18:36.234Z,8.88
2019-03-28T07:21:03.070Z,9.90
2019-03-28T07:23:29.732Z,8.83
2019-03-28T07:25:56.306Z,9.50
2019-03-28T07:28:23.056Z,8.95
2019-03-28T07:30:49.903Z,8.95
2019-03-28T07:33:16.370Z,9.60
2019-03-28T07:35:43.068Z,8.98
2019-03-28T07:38:09.547Z,9.03
2019-03-28T07:40:36.239Z,9.15
2019-03-28T07:43:02.874Z,9.03
2019-03-28T07:45:29.477Z,8.63
2019-03-28T07:47:56.187Z,8.60
2019-03-28T07:50:22.622Z,8.88
2019-03-28T07:52:49.307Z,8.43
2019-03-28T07:55:16.614Z,9.00
2019-03-28T07:57:43.544Z,8.43
2019-03-28T08:00:10.592Z,7.42
2019-03-28T08:02:37.232Z,7.30
2019-03-28T08:05:07.841Z,7.17
2019-03-28T08:07:44.271Z,7.50
2019-03-28T08:10:04.882Z,6.95
2019-03-28T08:12:31.421Z,6.72
2019-03-28T08:14:57.937Z,6.05
2019-03-28T08:17:24.749Z,6.22
2019-03-28T08:19:51.222Z,6.10
2019-03-28T08:22:17.736Z,5.85
2019-03-28T08:24:44.384Z,6.70
2019-03-28T08:27:10.988Z,6.45
2019-03-28T08:29:37.665Z,6.25
2019-03-28T08:32:06.165Z,7.30
2019-03-28T08:34:32.816Z,6.55
2019-03-28T08:36:59.728Z,6.83
2019-03-28T08:39:26.332Z,7.28
2019-03-28T08:41:53.025Z,7.70
2019-03-28T08:44:22.554Z,7.12
2019-03-28T08:46:48.293Z,7.33
2019-03-28T08:49:14.947Z,7.67
2019-03-28T08:51:41.647Z,7.47
2019-03-28T08:54:08.232Z,8.20
2019-03-28T08:56:35.891Z,6.80
2019-03-28T08:59:03.815Z,7.40
2019-03-28T09:04:15.047Z,7.97
2019-03-28T09:06:41.987Z,7.75
2019-03-28T09:09:08.579Z,7.37
2019-03-28T09:11:35.230Z,7.60
2019-03-28T09:14:01.845Z,7.30
2019-03-28T09:16:28.535Z,7.37
2019-03-28T09:21:40.004Z,7.08
2019-03-28T09:24:06.817Z,9.75
2019-03-28T09:26:33.572Z,9.18
2019-03-28T09:29:00.323Z,11.70
2019-03-28T09:31:26.888Z,9.15
2019-03-28T09:33:53.478Z,7.90
2019-03-28T09:36:20.036Z,8.60
2019-03-28T09:38:46.589Z,8.43
2019-03-28T09:41:13.155Z,8.43
2019-03-28T09:43:53.978Z,8.00
2019-03-28T09:46:08.501Z,10.43
2019-03-28T09:48:34.998Z,7.58
2019-03-28T09:51:01.580Z,8.90
2019-03-28T09:53:28.467Z,7.75
2019-03-28T09:55:55.036Z,7.92
2019-03-28T09:58:21.508Z,7.60
2019-03-28T10:01:01.997Z,7.85
2019-03-28T10:03:16.692Z,7.87
2019-03-28T10:05:43.482Z,7.53
2019-03-28T10:08:10.010Z,7.28
2019-03-28T10:10:36.776Z,6.72
2019-03-28T10:13:03.469Z,7.00
2019-03-28T10:15:30.007Z,7.40
2019-03-28T10:17:56.725Z,6.87
2019-03-28T10:20:23.299Z,6.50
2019-03-28T10:22:49.849Z,6.55
2019-03-28T10:25:17.502Z,6.33
2019-03-28T10:27:43.976Z,5.85
2019-03-28T10:30:10.791Z,6.03
2019-03-28T10:32:37.652Z,6.00
2019-03-28T10:35:06.812Z,6.75
2019-03-28T10:37:32.708Z,6.35
2019-03-28T10:39:59.387Z,6.03
2019-03-28T10:42:25.996Z,6.33
2019-03-28T10:44:52.474Z,6.75
2019-03-28T10:47:21.605Z,7.22
2019-03-28T10:49:48.170Z,5.92
2019-03-28T10:52:14.800Z,5.50
2019-03-28T10:54:41.348Z,6.42
2019-03-28T10:57:13.685Z,5.17
2019-03-28T10:59:36.486Z,5.10
2019-03-28T11:02:03.298Z,4.42
2019-03-28T11:04:31.920Z,4.40
2019-03-28T11:06:58.750Z,4.62
2019-03-28T11:09:25.689Z,4.53
2019-03-28T11:11:52.275Z,4.70
2019-03-28T11:14:19.053Z,4.40
2019-03-28T11:16:48.229Z,4.78
2019-03-28T11:19:15.948Z,4.85
2019-03-28T11:21:42.942Z,4.97
2019-03-28T11:24:09.604Z,5.10
2019-03-28T11:26:37.300Z,4.62
2019-03-28T11:29:03.863Z,4.33
2019-03-28T11:31:30.555Z,5.35
2019-03-28T11:33:57.349Z,5.22
2019-03-28T11:36:23.798Z,6.10
2019-03-28T11:38:50.365Z,5.85
2019-03-28T11:41:16.864Z,4.80
2019-03-28T11:43:43.520Z,4.62
2019-03-28T11:46:10.088Z,4.78
2019-03-28T11:48:36.661Z,4.45
2019-03-28T11:51:03.388Z,4.10
2019-03-28T11:53:30.079Z,3.35
2019-03-28T11:55:56.767Z,4.00
2019-03-28T11:58:23.381Z,4.10
2019-03-28T12:00:50.641Z,3.90
2019-03-28T12:03:17.404Z,4.15
2019-03-28T12:05:44.180Z,4.20
2019-03-28T12:08:10.726Z,3.92
2019-03-28T12:10:37.479Z,3.42
2019-03-28T12:13:03.938Z,3.65
2019-03-28T12:15:30.708Z,3.40
2019-03-28T12:17:57.282Z,2.72
2019-03-28T12:20:23.966Z,3.20
2019-03-28T12:22:50.622Z,1.30
2019-03-28T12:25:17.397Z,1.15
2019-03-28T12:27:43.940Z,1.60
2019-03-28T12:30:11.089Z,1.10
2019-03-28T12:32:37.781Z,1.00
2019-03-28T12:35:05.631Z,0.57
2019-03-28T12:37:32.216Z,0.55
2019-03-28T12:40:00.085Z,0.40
2019-03-28T12:42:26.762Z,0.47
2019-03-28T12:44:57.317Z,0.50
2019-03-28T12:47:21.528Z,0.37
2019-03-28T12:49:48.079Z,0.57
2019-03-28T12:52:18.509Z,0.53
2019-03-28T12:54:44.371Z,0.47
2019-03-28T12:57:14.161Z,0.65
2019-03-28T12:59:41.345Z,0.50
2019-03-28T13:02:07.899Z,0.57
2019-03-28T13:04:34.378Z,0.50
2019-03-28T13:07:00.839Z,0.45
2019-03-28T13:09:28.214Z,0.55
2019-03-28T13:11:55.013Z,1.72
2019-03-28T13:14:21.617Z,0.85
2019-03-28T13:16:48.432Z,1.00
2019-03-28T13:19:15.222Z,0.90
2019-03-28T13:21:41.892Z,0.70
2019-03-28T13:24:08.837Z,0.50
2019-03-28T13:26:35.391Z,0.60
2019-03-28T13:29:02.066Z,0.57
2019-03-28T13:31:28.737Z,0.50
2019-03-28T13:33:55.189Z,0.50
2019-03-28T13:36:21.662Z,0.60
2019-03-28T13:38:48.295Z,1.62
2019-03-28T13:41:14.835Z,0.62
2019-03-28T13:43:41.528Z,1.12
2019-03-28T13:46:07.999Z,2.15
2019-03-28T13:48:34.548Z,2.50
2019-03-28T13:51:01.238Z,1.90
2019-03-28T13:53:38.721Z,2.65
2019-03-28T13:55:56.233Z,3.20
2019-03-28T13:58:22.705Z,3.77
2019-03-28T14:00:49.418Z,3.80
2019-03-28T14:03:16.172Z,4.10
2019-03-28T14:05:42.859Z,3.60
2019-03-28T14:08:09.490Z,3.40
2019-03-28T14:10:35.985Z,3.62
2019-03-28T14:13:02.644Z,3.10
2019-03-28T14:15:29.267Z,3.25
2019-03-28T14:17:56.018Z,2.90
2019-03-28T14:20:22.619Z,3.10
2019-03-28T14:22:49.301Z,3.02
2019-03-28T14:25:15.957Z,2.95
2019-03-28T14:27:42.506Z,2.75
2019-03-28T14:30:09.695Z,2.50
2019-03-28T14:32:37.476Z,2.52
2019-03-28T14:35:04.127Z,2.40
2019-03-28T14:37:31.000Z,2.12
2019-03-28T14:39:57.576Z,1.85
2019-03-28T14:42:24.234Z,2.12
2019-03-28T14:44:50.722Z,1.80
2019-03-28T14:47:17.482Z,2.30
2019-03-28T14:49:44.038Z,2.05
2019-03-28T14:52:10.760Z,2.05
2019-03-28T14:54:37.319Z,2.20
2019-03-28T14:57:03.802Z,2.50
2019-03-28T14:59:32.695Z,2.65
2019-03-28T15:01:59.707Z,2.75
2019-03-28T15:04:26.301Z,2.85
2019-03-28T15:06:52.956Z,2.90
2019-03-28T15:09:20.638Z,2.60
2019-03-28T15:11:47.274Z,2.55
2019-03-28T15:14:13.901Z,2.27
2019-03-28T15:16:40.676Z,2.47
2019-03-28T15:19:07.269Z,2.90
2019-03-28T15:21:33.945Z,2.87
2019-03-28T15:24:00.599Z,2.70
2019-03-28T15:26:30.167Z,2.62
2019-03-28T15:28:55.686Z,2.62
2019-03-28T15:31:22.257Z,2.40
2019-03-28T15:33:48.845Z,2.67
2019-03-28T15:36:15.398Z,3.17
2019-03-28T15:38:41.977Z,3.20
2019-03-28T15:41:08.973Z,2.95
2019-03-28T15:43:35.552Z,2.45
2019-03-28T15:46:02.140Z,2.90
2019-03-28T15:48:28.895Z,2.67
2019-03-28T15:50:55.548Z,2.55
2019-03-28T15:53:22.123Z,2.30
2019-03-28T15:55:48.974Z,2.40
2019-03-28T15:58:23.220Z,2.27
2019-03-28T16:00:43.912Z,1.72
2019-03-28T16:03:10.625Z,1.77
2019-03-28T16:05:37.281Z,2.15
2019-03-28T16:08:03.864Z,1.55
2019-03-28T16:10:30.426Z,1.80
2019-03-28T16:12:57.002Z,1.72
2019-03-28T16:15:23.554Z,1.60
2019-03-28T16:17:50.132Z,1.60
2019-03-28T16:20:16.724Z,1.77
2019-03-28T16:22:43.444Z,1.77
2019-03-28T16:25:09.918Z,1.77
2019-03-28T16:27:36.485Z,1.80
2019-03-28T16:30:08.761Z,1.57
2019-03-28T16:32:35.354Z,1.67
2019-03-28T16:35:03.679Z,1.80
2019-03-28T16:37:30.322Z,1.98
2019-03-28T16:39:57.182Z,1.92
2019-03-28T16:42:23.730Z,1.45
2019-03-28T16:44:50.622Z,2.10
2019-03-28T16:47:17.224Z,2.37
2019-03-28T16:49:45.258Z,2.37
2019-03-28T16:52:11.893Z,2.10
2019-03-28T16:54:39.602Z,2.35
2019-03-28T16:57:06.193Z,2.05
2019-03-28T16:59:32.720Z,2.37
2019-03-28T17:01:59.486Z,1.80
2019-03-28T17:04:26.138Z,1.90
2019-03-28T17:06:52.744Z,1.75
2019-03-28T17:09:19.369Z,1.67
2019-03-28T17:11:45.940Z,1.77
2019-03-28T17:14:12.608Z,1.95
2019-03-28T17:16:39.277Z,2.02
2019-03-28T17:19:05.908Z,2.25
2019-03-28T17:21:32.351Z,2.02
2019-03-28T17:23:59.103Z,2.08
2019-03-28T17:26:25.884Z,15.58
2019-03-28T17:28:52.418Z,9.55
2019-03-28T17:31:19.675Z,5.70
2019-03-28T17:33:46.210Z,3.60
2019-03-28T17:36:12.801Z,2.70
2019-03-28T17:38:39.590Z,3.50
2019-03-28T17:41:07.203Z,4.00
2019-03-28T17:43:34.870Z,3.62
2019-03-28T17:46:01.452Z,4.10
2019-03-28T17:48:28.614Z,3.60
2019-03-28T17:50:55.441Z,3.80
2019-03-28T17:53:24.040Z,3.83
2019-03-28T17:55:50.475Z,4.35
2019-03-28T17:58:16.960Z,3.85
2019-03-28T18:00:44.845Z,3.98
2019-03-28T18:03:11.658Z,3.98
2019-03-28T18:05:40.602Z,3.70
2019-03-28T18:08:06.729Z,4.05
2019-03-28T18:10:33.287Z,3.95
2019-03-28T18:12:59.988Z,3.87
2019-03-28T18:15:26.584Z,3.45
2019-03-28T18:17:53.135Z,3.42
2019-03-28T18:20:19.718Z,2.83
2019-03-28T18:22:46.385Z,3.37
2019-03-28T18:25:12.978Z,2.52
2019-03-28T18:27:39.563Z,2.98
2019-03-28T18:30:06.352Z,2.35
2019-03-28T18:32:33.028Z,2.37
2019-03-28T18:35:05.509Z,2.60
2019-03-28T18:37:28.256Z,2.65
2019-03-28T18:39:55.026Z,2.33
2019-03-28T18:42:22.147Z,2.22
2019-03-28T18:44:48.661Z,2.17
2019-03-28T18:47:15.422Z,1.77
2019-03-28T18:49:42.289Z,2.05
2019-03-28T18:52:08.911Z,2.20
2019-03-28T18:54:35.868Z,2.72
2019-03-28T18:57:03.389Z,2.50
2019-03-28T18:59:31.063Z,2.37
2019-03-28T19:01:57.524Z,2.12
2019-03-28T19:04:24.184Z,2.47
2019-03-28T19:06:50.764Z,3.00
2019-03-28T19:09:17.331Z,2.92
2019-03-28T19:11:43.893Z,3.25
2019-03-28T19:14:10.558Z,3.40
2019-03-28T19:16:37.023Z,3.20
2019-03-28T19:19:03.801Z,3.10
2019-03-28T19:21:30.524Z,3.17
2019-03-28T19:23:57.146Z,2.80
2019-03-28T19:26:23.915Z,3.10
2019-03-28T19:28:50.395Z,2.70
2019-03-28T19:31:17.347Z,2.58
2019-03-28T19:33:44.000Z,2.85
2019-03-28T19:36:10.667Z,2.65
2019-03-28T19:38:37.148Z,2.72
2019-03-28T19:41:03.712Z,2.77
2019-03-28T19:43:30.618Z,2.90
2019-03-28T19:45:57.422Z,3.72
2019-03-28T19:48:24.167Z,3.15
2019-03-28T19:50:50.775Z,2.80
2019-03-28T19:53:17.985Z,2.20
2019-03-28T19:55:44.800Z,2.22
2019-03-28T19:58:13.579Z,2.00
2019-03-28T20:00:39.937Z,2.25
2019-03-28T20:03:06.572Z,2.87
2019-03-28T20:05:46.327Z,2.40
2019-03-28T20:08:14.660Z,2.50
2019-03-28T20:10:30.289Z,2.90
2019-03-28T20:12:57.594Z,2.42
2019-03-28T20:15:24.362Z,2.50
2019-03-28T20:17:50.978Z,2.42
2019-03-28T20:20:17.692Z,2.10
2019-03-28T20:22:45.075Z,2.05
2019-03-28T20:25:11.572Z,2.12
2019-03-28T20:27:38.143Z,2.00
2019-03-28T20:30:05.216Z,2.33
2019-03-28T20:32:31.796Z,2.55
2019-03-28T20:34:58.414Z,2.60
2019-03-28T20:37:25.032Z,2.90
2019-03-28T20:39:51.598Z,2.35
2019-03-28T20:42:18.340Z,2.08
2019-03-28T20:44:45.017Z,2.25
2019-03-28T20:47:11.708Z,1.98
2019-03-28T20:49:38.268Z,2.58
2019-03-28T20:52:04.888Z,1.80
2019-03-28T20:54:31.457Z,2.58
2019-03-28T20:56:59.343Z,2.05
2019-03-28T20:59:26.032Z,2.30
2019-03-28T21:01:52.680Z,2.12
2019-03-28T21:04:31.159Z,2.17
2019-03-28T21:06:49.540Z,2.60
2019-03-28T21:09:16.027Z,2.20
2019-03-28T21:11:42.611Z,2.80
2019-03-28T21:14:09.135Z,2.52
2019-03-28T21:16:35.988Z,2.22
2019-03-28T21:19:02.548Z,2.50
2019-03-28T21:21:29.312Z,2.80
2019-03-28T21:23:55.968Z,2.50
2019-03-28T21:26:22.550Z,2.30
2019-03-28T21:28:49.139Z,2.30
2019-03-28T21:31:16.944Z,2.52
2019-03-28T21:33:43.724Z,2.52
2019-03-28T21:36:11.451Z,2.75
2019-03-28T21:38:38.030Z,2.50
2019-03-28T21:41:04.592Z,2.80
2019-03-28T21:43:31.330Z,2.60
2019-03-28T21:45:58.009Z,2.55
2019-03-28T21:48:24.562Z,2.80
2019-03-28T21:50:51.031Z,2.75
2019-03-28T21:53:19.958Z,2.87
2019-03-28T21:55:55.145Z,2.80
2019-03-28T21:58:14.606Z,2.77
2019-03-28T22:00:41.178Z,2.60
2019-03-28T22:03:07.865Z,2.30
2019-03-28T22:05:34.484Z,2.30
2019-03-28T22:08:01.034Z,2.35
2019-03-28T22:10:27.576Z,1.30
2019-03-28T22:12:55.771Z,2.37
2019-03-28T22:15:22.432Z,2.40
2019-03-28T22:17:49.042Z,2.20
2019-03-28T22:20:15.501Z,2.00
2019-03-28T22:22:43.533Z,2.30
2019-03-28T22:25:10.318Z,2.12
2019-03-28T22:27:37.075Z,2.00
2019-03-28T22:30:04.444Z,2.22
2019-03-28T22:32:32.410Z,2.10
2019-03-28T22:34:59.838Z,2.52
2019-03-28T22:37:26.536Z,2.50
2019-03-28T22:39:53.238Z,2.80
2019-03-28T22:42:19.790Z,2.90
2019-03-28T22:44:46.232Z,2.50
2019-03-28T22:47:12.942Z,2.40
2019-03-28T22:49:39.700Z,2.33
2019-03-28T22:52:06.360Z,2.20
2019-03-28T22:54:32.817Z,1.85
2019-03-28T22:56:59.463Z,2.35
2019-03-28T22:59:26.917Z,2.55
2019-03-28T23:01:53.809Z,2.80
2019-03-28T23:04:20.372Z,2.98
2019-03-28T23:06:47.069Z,2.65
2019-03-28T23:09:13.737Z,2.40
2019-03-28T23:11:40.700Z,2.40
2019-03-28T23:14:07.748Z,2.60
2019-03-28T23:16:34.434Z,3.45
2019-03-28T23:19:00.974Z,3.33
2019-03-28T23:21:27.635Z,2.65
2019-03-28T23:23:54.201Z,3.00
2019-03-28T23:26:20.799Z,2.80
2019-03-28T23:28:47.360Z,3.00
2019-03-28T23:31:13.886Z,2.70
2019-03-28T23:33:40.483Z,2.87
2019-03-28T23:36:07.287Z,2.52
2019-03-28T23:38:33.990Z,2.20
2019-03-28T23:41:00.664Z,2.50
2019-03-28T23:43:27.287Z,2.50
2019-03-28T23:45:53.932Z,2.35
2019-03-28T23:48:21.158Z,2.10
2019-03-28T23:50:48.400Z,2.47
2019-03-28T23:53:15.261Z,2.52
2019-03-28T23:55:41.837Z,2.42
2019-03-28T23:58:08.379Z,2.47
